sensor_id;sensor_type;location;lat;lon;timestamp;P1;durP1;ratioP1;P2;durP2;ratioP2
62338;SDS011;48368;53.406;6.214;2023-04-15T00:01:23;14.90;;;6.72;;
62338;SDS011;48368;53.406;6.214;2023-04-15T00:03:52;13.82;;;6.25;;
62338;SDS011;48368;53.406;6.214;2023-04-15T00:06:22;13.30;;;8.05;;
62338;SDS011;48368;53.406;6.214;2023-04-15T00:08:47;11.63;;;6.65;;
62338;SDS011;48368;53.406;6.214;2023-04-15T00:11:14;17.45;;;7.97;;
62338;SDS011;48368;53.406;6.214;2023-04-15T00:13:41;16.75;;;7.72;;
62338;SDS011;48368;53.406;6.214;2023-04-15T00:16:08;16.63;;;7.95;;
62338;SDS011;48368;53.406;6.214;2023-04-15T00:18:34;16.73;;;7.50;;
62338;SDS011;48368;53.406;6.214;2023-04-15T00:20:59;16.83;;;8.20;;
62338;SDS011;48368;53.406;6.214;2023-04-15T00:23:25;16.33;;;8.30;;
62338;SDS011;48368;53.406;6.214;2023-04-15T00:25:51;15.93;;;8.43;;
62338;SDS011;48368;53.406;6.214;2023-04-15T00:28:17;15.75;;;8.38;;
62338;SDS011;48368;53.406;6.214;2023-04-15T00:30:43;18.42;;;8.88;;
62338;SDS011;48368;53.406;6.214;2023-04-15T00:33:09;19.00;;;8.90;;
62338;SDS011;48368;53.406;6.214;2023-04-15T00:35:35;16.65;;;9.93;;
62338;SDS011;48368;53.406;6.214;2023-04-15T00:38:01;18.67;;;10.60;;
62338;SDS011;48368;53.406;6.214;2023-04-15T00:40:28;16.52;;;10.32;;
62338;SDS011;48368;53.406;6.214;2023-04-15T00:42:54;18.65;;;10.65;;
62338;SDS011;48368;53.406;6.214;2023-04-15T00:45:20;20.77;;;10.00;;
62338;SDS011;48368;53.406;6.214;2023-04-15T00:47:45;22.65;;;11.35;;
62338;SDS011;48368;53.406;6.214;2023-04-15T00:50:11;16.40;;;10.82;;
62338;SDS011;48368;53.406;6.214;2023-04-15T00:52:37;17.92;;;11.20;;
62338;SDS011;48368;53.406;6.214;2023-04-15T00:55:03;17.33;;;11.32;;
62338;SDS011;48368;53.406;6.214;2023-04-15T00:57:30;20.13;;;11.32;;
62338;SDS011;48368;53.406;6.214;2023-04-15T00:59:56;18.92;;;11.30;;
62338;SDS011;48368;53.406;6.214;2023-04-15T01:02:22;21.75;;;11.27;;
62338;SDS011;48368;53.406;6.214;2023-04-15T01:04:48;18.83;;;10.98;;
62338;SDS011;48368;53.406;6.214;2023-04-15T01:07:14;19.08;;;11.38;;
62338;SDS011;48368;53.406;6.214;2023-04-15T01:09:40;18.30;;;10.70;;
62338;SDS011;48368;53.406;6.214;2023-04-15T01:12:06;17.88;;;10.60;;
62338;SDS011;48368;53.406;6.214;2023-04-15T01:14:34;19.08;;;10.98;;
62338;SDS011;48368;53.406;6.214;2023-04-15T01:17:00;18.73;;;10.82;;
62338;SDS011;48368;53.406;6.214;2023-04-15T01:19:26;18.45;;;11.10;;
62338;SDS011;48368;53.406;6.214;2023-04-15T01:21:52;20.38;;;11.20;;
62338;SDS011;48368;53.406;6.214;2023-04-15T01:24:18;19.00;;;11.30;;
62338;SDS011;48368;53.406;6.214;2023-04-15T01:26:44;18.75;;;11.48;;
62338;SDS011;48368;53.406;6.214;2023-04-15T01:29:10;18.80;;;10.93;;
62338;SDS011;48368;53.406;6.214;2023-04-15T01:31:37;17.30;;;11.00;;
62338;SDS011;48368;53.406;6.214;2023-04-15T01:34:03;18.30;;;12.30;;
62338;SDS011;48368;53.406;6.214;2023-04-15T01:36:29;23.67;;;11.68;;
62338;SDS011;48368;53.406;6.214;2023-04-15T01:38:54;15.82;;;11.23;;
62338;SDS011;48368;53.406;6.214;2023-04-15T01:41:25;17.98;;;10.23;;
62338;SDS011;48368;53.406;6.214;2023-04-15T01:43:52;15.98;;;10.48;;
62338;SDS011;48368;53.406;6.214;2023-04-15T01:46:18;17.08;;;10.07;;
62338;SDS011;48368;53.406;6.214;2023-04-15T01:48:44;17.58;;;10.20;;
62338;SDS011;48368;53.406;6.214;2023-04-15T01:51:10;16.92;;;10.00;;
62338;SDS011;48368;53.406;6.214;2023-04-15T01:53:39;17.98;;;9.55;;
62338;SDS011;48368;53.406;6.214;2023-04-15T01:56:05;17.73;;;10.23;;
62338;SDS011;48368;53.406;6.214;2023-04-15T01:58:31;16.98;;;10.07;;
62338;SDS011;48368;53.406;6.214;2023-04-15T02:00:57;16.73;;;9.82;;
62338;SDS011;48368;53.406;6.214;2023-04-15T02:03:23;14.25;;;9.07;;
62338;SDS011;48368;53.406;6.214;2023-04-15T02:05:49;16.00;;;10.02;;
62338;SDS011;48368;53.406;6.214;2023-04-15T02:08:15;16.25;;;10.00;;
62338;SDS011;48368;53.406;6.214;2023-04-15T02:10:41;14.20;;;9.32;;
62338;SDS011;48368;53.406;6.214;2023-04-15T02:13:07;14.50;;;9.57;;
62338;SDS011;48368;53.406;6.214;2023-04-15T02:15:33;15.60;;;10.38;;
62338;SDS011;48368;53.406;6.214;2023-04-15T02:17:59;19.92;;;10.52;;
62338;SDS011;48368;53.406;6.214;2023-04-15T02:20:25;18.83;;;9.65;;
62338;SDS011;48368;53.406;6.214;2023-04-15T02:22:51;17.58;;;11.23;;
62338;SDS011;48368;53.406;6.214;2023-04-15T02:25:17;15.13;;;10.40;;
62338;SDS011;48368;53.406;6.214;2023-04-15T02:27:44;16.92;;;10.52;;
62338;SDS011;48368;53.406;6.214;2023-04-15T02:30:09;16.55;;;11.48;;
62338;SDS011;48368;53.406;6.214;2023-04-15T02:32:35;17.58;;;10.90;;
62338;SDS011;48368;53.406;6.214;2023-04-15T02:35:02;19.00;;;11.63;;
62338;SDS011;48368;53.406;6.214;2023-04-15T02:37:29;19.42;;;11.43;;
62338;SDS011;48368;53.406;6.214;2023-04-15T02:39:56;18.85;;;11.63;;
62338;SDS011;48368;53.406;6.214;2023-04-15T02:42:21;18.77;;;12.05;;
62338;SDS011;48368;53.406;6.214;2023-04-15T02:44:47;19.65;;;12.20;;
62338;SDS011;48368;53.406;6.214;2023-04-15T02:47:12;24.00;;;13.05;;
62338;SDS011;48368;53.406;6.214;2023-04-15T02:49:39;20.58;;;12.25;;
62338;SDS011;48368;53.406;6.214;2023-04-15T02:52:05;20.48;;;12.50;;
62338;SDS011;48368;53.406;6.214;2023-04-15T02:54:31;21.05;;;12.63;;
62338;SDS011;48368;53.406;6.214;2023-04-15T02:56:58;19.40;;;12.20;;
62338;SDS011;48368;53.406;6.214;2023-04-15T02:59:24;22.02;;;11.63;;
62338;SDS011;48368;53.406;6.214;2023-04-15T03:01:49;18.17;;;11.50;;
62338;SDS011;48368;53.406;6.214;2023-04-15T03:04:15;19.27;;;11.35;;
62338;SDS011;48368;53.406;6.214;2023-04-15T03:06:41;20.83;;;11.35;;
62338;SDS011;48368;53.406;6.214;2023-04-15T03:09:06;19.25;;;11.40;;
62338;SDS011;48368;53.406;6.214;2023-04-15T03:11:32;18.27;;;10.98;;
62338;SDS011;48368;53.406;6.214;2023-04-15T03:13:59;20.77;;;12.40;;
62338;SDS011;48368;53.406;6.214;2023-04-15T03:16:24;19.17;;;11.45;;
62338;SDS011;48368;53.406;6.214;2023-04-15T03:18:50;15.60;;;10.68;;
62338;SDS011;48368;53.406;6.214;2023-04-15T03:21:16;15.57;;;10.55;;
62338;SDS011;48368;53.406;6.214;2023-04-15T03:23:42;16.42;;;11.15;;
62338;SDS011;48368;53.406;6.214;2023-04-15T03:26:07;18.25;;;10.60;;
62338;SDS011;48368;53.406;6.214;2023-04-15T03:28:33;21.25;;;12.13;;
62338;SDS011;48368;53.406;6.214;2023-04-15T03:30:58;17.60;;;11.02;;
62338;SDS011;48368;53.406;6.214;2023-04-15T03:33:25;15.85;;;10.07;;
62338;SDS011;48368;53.406;6.214;2023-04-15T03:35:50;16.88;;;10.48;;
62338;SDS011;48368;53.406;6.214;2023-04-15T03:38:17;16.80;;;10.50;;
62338;SDS011;48368;53.406;6.214;2023-04-15T03:40:44;18.35;;;10.30;;
62338;SDS011;48368;53.406;6.214;2023-04-15T03:43:10;19.45;;;12.23;;
62338;SDS011;48368;53.406;6.214;2023-04-15T03:45:36;21.30;;;12.80;;
62338;SDS011;48368;53.406;6.214;2023-04-15T03:48:01;21.63;;;12.52;;
62338;SDS011;48368;53.406;6.214;2023-04-15T03:50:27;19.60;;;11.35;;
62338;SDS011;48368;53.406;6.214;2023-04-15T03:52:53;18.40;;;11.48;;
62338;SDS011;48368;53.406;6.214;2023-04-15T03:55:20;16.73;;;11.20;;
62338;SDS011;48368;53.406;6.214;2023-04-15T03:57:46;13.13;;;8.82;;
62338;SDS011;48368;53.406;6.214;2023-04-15T04:00:11;16.67;;;10.30;;
62338;SDS011;48368;53.406;6.214;2023-04-15T04:02:37;12.10;;;7.70;;
62338;SDS011;48368;53.406;6.214;2023-04-15T04:05:03;12.60;;;8.18;;
62338;SDS011;48368;53.406;6.214;2023-04-15T04:07:29;11.13;;;7.38;;
62338;SDS011;48368;53.406;6.214;2023-04-15T04:09:56;9.27;;;6.65;;
62338;SDS011;48368;53.406;6.214;2023-04-15T04:12:22;7.95;;;5.25;;
62338;SDS011;48368;53.406;6.214;2023-04-15T04:14:47;6.60;;;4.45;;
62338;SDS011;48368;53.406;6.214;2023-04-15T04:17:13;6.43;;;4.57;;
62338;SDS011;48368;53.406;6.214;2023-04-15T04:19:39;7.50;;;4.85;;
62338;SDS011;48368;53.406;6.214;2023-04-15T04:22:05;8.43;;;5.15;;
62338;SDS011;48368;53.406;6.214;2023-04-15T04:24:30;8.38;;;5.00;;
62338;SDS011;48368;53.406;6.214;2023-04-15T04:26:56;9.38;;;5.40;;
62338;SDS011;48368;53.406;6.214;2023-04-15T04:29:22;7.45;;;4.85;;
62338;SDS011;48368;53.406;6.214;2023-04-15T04:31:47;11.75;;;6.13;;
62338;SDS011;48368;53.406;6.214;2023-04-15T04:34:13;9.38;;;6.10;;
62338;SDS011;48368;53.406;6.214;2023-04-15T04:36:39;10.35;;;6.40;;
62338;SDS011;48368;53.406;6.214;2023-04-15T04:39:05;12.20;;;6.93;;
62338;SDS011;48368;53.406;6.214;2023-04-15T04:41:32;12.45;;;7.68;;
62338;SDS011;48368;53.406;6.214;2023-04-15T04:43:57;10.57;;;7.25;;
62338;SDS011;48368;53.406;6.214;2023-04-15T04:46:23;11.93;;;7.18;;
62338;SDS011;48368;53.406;6.214;2023-04-15T04:48:49;12.27;;;7.53;;
62338;SDS011;48368;53.406;6.214;2023-04-15T04:51:15;12.63;;;6.45;;
62338;SDS011;48368;53.406;6.214;2023-04-15T04:53:47;10.80;;;6.80;;
62338;SDS011;48368;53.406;6.214;2023-04-15T04:56:12;14.93;;;7.85;;
62338;SDS011;48368;53.406;6.214;2023-04-15T04:58:38;13.45;;;7.57;;
62338;SDS011;48368;53.406;6.214;2023-04-15T05:01:03;12.55;;;7.57;;
62338;SDS011;48368;53.406;6.214;2023-04-15T05:03:29;11.98;;;7.70;;
62338;SDS011;48368;53.406;6.214;2023-04-15T05:05:55;12.98;;;7.70;;
62338;SDS011;48368;53.406;6.214;2023-04-15T05:08:20;13.85;;;7.70;;
62338;SDS011;48368;53.406;6.214;2023-04-15T05:10:46;15.23;;;8.25;;
62338;SDS011;48368;53.406;6.214;2023-04-15T05:13:12;13.98;;;8.20;;
62338;SDS011;48368;53.406;6.214;2023-04-15T05:15:37;16.88;;;8.35;;
62338;SDS011;48368;53.406;6.214;2023-04-15T05:18:05;14.65;;;8.90;;
62338;SDS011;48368;53.406;6.214;2023-04-15T05:20:31;17.38;;;10.05;;
62338;SDS011;48368;53.406;6.214;2023-04-15T05:22:56;13.45;;;7.85;;
62338;SDS011;48368;53.406;6.214;2023-04-15T05:25:22;19.63;;;8.95;;
62338;SDS011;48368;53.406;6.214;2023-04-15T05:27:48;13.65;;;8.50;;
62338;SDS011;48368;53.406;6.214;2023-04-15T05:30:13;15.55;;;9.05;;
62338;SDS011;48368;53.406;6.214;2023-04-15T05:32:39;14.48;;;8.70;;
62338;SDS011;48368;53.406;6.214;2023-04-15T05:35:05;14.63;;;8.13;;
62338;SDS011;48368;53.406;6.214;2023-04-15T05:37:32;13.75;;;8.07;;
62338;SDS011;48368;53.406;6.214;2023-04-15T05:39:57;18.30;;;9.45;;
62338;SDS011;48368;53.406;6.214;2023-04-15T05:42:23;12.70;;;8.15;;
62338;SDS011;48368;53.406;6.214;2023-04-15T05:44:48;15.07;;;8.88;;
62338;SDS011;48368;53.406;6.214;2023-04-15T05:47:14;13.30;;;8.27;;
62338;SDS011;48368;53.406;6.214;2023-04-15T05:49:40;14.57;;;8.40;;
62338;SDS011;48368;53.406;6.214;2023-04-15T05:52:05;15.35;;;8.00;;
62338;SDS011;48368;53.406;6.214;2023-04-15T05:54:31;16.05;;;9.75;;
62338;SDS011;48368;53.406;6.214;2023-04-15T05:56:57;17.95;;;8.98;;
62338;SDS011;48368;53.406;6.214;2023-04-15T05:59:23;13.73;;;8.45;;
62338;SDS011;48368;53.406;6.214;2023-04-15T06:01:48;16.08;;;9.43;;
62338;SDS011;48368;53.406;6.214;2023-04-15T06:04:16;17.92;;;9.60;;
62338;SDS011;48368;53.406;6.214;2023-04-15T06:06:41;15.75;;;9.57;;
62338;SDS011;48368;53.406;6.214;2023-04-15T06:09:07;19.80;;;10.23;;
62338;SDS011;48368;53.406;6.214;2023-04-15T06:11:32;19.25;;;10.15;;
62338;SDS011;48368;53.406;6.214;2023-04-15T06:13:58;16.23;;;9.93;;
62338;SDS011;48368;53.406;6.214;2023-04-15T06:16:24;16.17;;;9.48;;
62338;SDS011;48368;53.406;6.214;2023-04-15T06:18:49;16.38;;;9.38;;
62338;SDS011;48368;53.406;6.214;2023-04-15T06:21:15;16.08;;;9.52;;
62338;SDS011;48368;53.406;6.214;2023-04-15T06:23:40;16.58;;;9.68;;
62338;SDS011;48368;53.406;6.214;2023-04-15T06:26:06;15.73;;;9.77;;
62338;SDS011;48368;53.406;6.214;2023-04-15T06:28:32;15.68;;;9.13;;
62338;SDS011;48368;53.406;6.214;2023-04-15T06:30:58;15.70;;;8.98;;
62338;SDS011;48368;53.406;6.214;2023-04-15T06:33:24;15.02;;;8.65;;
62338;SDS011;48368;53.406;6.214;2023-04-15T06:35:49;15.45;;;8.25;;
62338;SDS011;48368;53.406;6.214;2023-04-15T06:38:15;16.48;;;8.93;;
62338;SDS011;48368;53.406;6.214;2023-04-15T06:40:40;17.60;;;8.70;;
62338;SDS011;48368;53.406;6.214;2023-04-15T06:43:06;12.45;;;7.38;;
62338;SDS011;48368;53.406;6.214;2023-04-15T06:45:33;13.02;;;7.68;;
62338;SDS011;48368;53.406;6.214;2023-04-15T06:47:59;12.90;;;7.25;;
62338;SDS011;48368;53.406;6.214;2023-04-15T06:50:25;14.80;;;8.07;;
62338;SDS011;48368;53.406;6.214;2023-04-15T06:52:51;14.60;;;8.40;;
62338;SDS011;48368;53.406;6.214;2023-04-15T06:55:17;12.57;;;7.47;;
62338;SDS011;48368;53.406;6.214;2023-04-15T06:57:44;17.35;;;7.05;;
62338;SDS011;48368;53.406;6.214;2023-04-15T07:00:10;12.40;;;6.70;;
62338;SDS011;48368;53.406;6.214;2023-04-15T07:02:36;11.93;;;6.72;;
62338;SDS011;48368;53.406;6.214;2023-04-15T07:05:02;13.77;;;6.82;;
62338;SDS011;48368;53.406;6.214;2023-04-15T07:07:28;13.88;;;6.95;;
62338;SDS011;48368;53.406;6.214;2023-04-15T07:09:54;13.70;;;7.20;;
62338;SDS011;48368;53.406;6.214;2023-04-15T07:12:20;13.43;;;7.28;;
62338;SDS011;48368;53.406;6.214;2023-04-15T07:14:45;13.10;;;6.03;;
62338;SDS011;48368;53.406;6.214;2023-04-15T07:17:11;13.43;;;5.45;;
62338;SDS011;48368;53.406;6.214;2023-04-15T07:19:37;10.73;;;5.13;;
62338;SDS011;48368;53.406;6.214;2023-04-15T07:22:02;9.88;;;5.22;;
62338;SDS011;48368;53.406;6.214;2023-04-15T07:24:28;8.73;;;4.10;;
62338;SDS011;48368;53.406;6.214;2023-04-15T07:26:54;8.27;;;4.53;;
62338;SDS011;48368;53.406;6.214;2023-04-15T07:29:23;8.48;;;4.65;;
62338;SDS011;48368;53.406;6.214;2023-04-15T07:31:49;8.77;;;4.43;;
62338;SDS011;48368;53.406;6.214;2023-04-15T07:34:15;10.05;;;4.22;;
62338;SDS011;48368;53.406;6.214;2023-04-15T07:36:41;8.02;;;4.45;;
62338;SDS011;48368;53.406;6.214;2023-04-15T07:39:07;9.23;;;3.92;;
62338;SDS011;48368;53.406;6.214;2023-04-15T07:41:33;11.40;;;5.10;;
62338;SDS011;48368;53.406;6.214;2023-04-15T07:43:59;9.30;;;4.05;;
62338;SDS011;48368;53.406;6.214;2023-04-15T07:46:24;8.32;;;3.85;;
62338;SDS011;48368;53.406;6.214;2023-04-15T07:48:51;8.27;;;4.68;;
62338;SDS011;48368;53.406;6.214;2023-04-15T07:51:17;8.65;;;4.65;;
62338;SDS011;48368;53.406;6.214;2023-04-15T07:53:45;15.88;;;5.13;;
62338;SDS011;48368;53.406;6.214;2023-04-15T07:56:15;11.77;;;4.88;;
62338;SDS011;48368;53.406;6.214;2023-04-15T07:58:41;7.03;;;4.15;;
62338;SDS011;48368;53.406;6.214;2023-04-15T08:01:07;8.35;;;4.13;;
62338;SDS011;48368;53.406;6.214;2023-04-15T08:03:33;9.85;;;4.63;;
62338;SDS011;48368;53.406;6.214;2023-04-15T08:05:59;6.82;;;3.88;;
62338;SDS011;48368;53.406;6.214;2023-04-15T08:08:24;7.47;;;3.70;;
62338;SDS011;48368;53.406;6.214;2023-04-15T08:10:50;9.57;;;4.97;;
62338;SDS011;48368;53.406;6.214;2023-04-15T08:13:16;6.85;;;4.20;;
62338;SDS011;48368;53.406;6.214;2023-04-15T08:15:42;8.07;;;4.00;;
62338;SDS011;48368;53.406;6.214;2023-04-15T08:18:08;9.98;;;4.93;;
62338;SDS011;48368;53.406;6.214;2023-04-15T08:20:33;9.38;;;4.40;;
62338;SDS011;48368;53.406;6.214;2023-04-15T08:22:59;10.57;;;4.35;;
62338;SDS011;48368;53.406;6.214;2023-04-15T08:25:25;8.15;;;4.60;;
62338;SDS011;48368;53.406;6.214;2023-04-15T08:27:51;11.48;;;4.45;;
62338;SDS011;48368;53.406;6.214;2023-04-15T08:30:19;9.18;;;4.55;;
62338;SDS011;48368;53.406;6.214;2023-04-15T08:32:45;10.20;;;4.72;;
62338;SDS011;48368;53.406;6.214;2023-04-15T08:35:11;9.13;;;4.75;;
62338;SDS011;48368;53.406;6.214;2023-04-15T08:37:37;9.00;;;4.28;;
62338;SDS011;48368;53.406;6.214;2023-04-15T08:40:03;9.95;;;3.40;;
62338;SDS011;48368;53.406;6.214;2023-04-15T08:42:30;9.43;;;4.13;;
62338;SDS011;48368;53.406;6.214;2023-04-15T08:44:58;11.50;;;3.75;;
62338;SDS011;48368;53.406;6.214;2023-04-15T08:47:25;6.50;;;3.42;;
62338;SDS011;48368;53.406;6.214;2023-04-15T08:49:55;5.90;;;2.78;;
62338;SDS011;48368;53.406;6.214;2023-04-15T08:52:25;6.68;;;2.22;;
62338;SDS011;48368;53.406;6.214;2023-04-15T08:54:51;6.13;;;2.60;;
62338;SDS011;48368;53.406;6.214;2023-04-15T08:57:24;4.93;;;1.80;;
62338;SDS011;48368;53.406;6.214;2023-04-15T08:59:51;6.57;;;2.70;;
62338;SDS011;48368;53.406;6.214;2023-04-15T09:02:19;6.55;;;2.70;;
62338;SDS011;48368;53.406;6.214;2023-04-15T09:04:46;10.52;;;2.10;;
62338;SDS011;48368;53.406;6.214;2023-04-15T09:07:11;4.32;;;2.28;;
62338;SDS011;48368;53.406;6.214;2023-04-15T09:09:37;6.63;;;2.10;;
62338;SDS011;48368;53.406;6.214;2023-04-15T09:12:04;5.40;;;2.40;;
62338;SDS011;48368;53.406;6.214;2023-04-15T09:14:30;4.18;;;1.85;;
62338;SDS011;48368;53.406;6.214;2023-04-15T09:19:26;2.47;;;1.13;;
62338;SDS011;48368;53.406;6.214;2023-04-15T09:21:52;5.03;;;1.60;;
62338;SDS011;48368;53.406;6.214;2023-04-15T09:24:21;5.00;;;1.50;;
62338;SDS011;48368;53.406;6.214;2023-04-15T09:26:47;8.00;;;2.40;;
62338;SDS011;48368;53.406;6.214;2023-04-15T09:29:16;5.75;;;1.65;;
62338;SDS011;48368;53.406;6.214;2023-04-15T09:31:42;6.72;;;2.20;;
62338;SDS011;48368;53.406;6.214;2023-04-15T09:34:08;3.78;;;1.50;;
62338;SDS011;48368;53.406;6.214;2023-04-15T09:36:53;4.28;;;1.52;;
62338;SDS011;48368;53.406;6.214;2023-04-15T09:39:20;3.45;;;1.35;;
62338;SDS011;48368;53.406;6.214;2023-04-15T09:41:46;4.78;;;1.33;;
62338;SDS011;48368;53.406;6.214;2023-04-15T09:44:31;3.30;;;1.50;;
62338;SDS011;48368;53.406;6.214;2023-04-15T09:46:57;3.50;;;1.20;;
62338;SDS011;48368;53.406;6.214;2023-04-15T09:49:22;1.55;;;0.82;;
62338;SDS011;48368;53.406;6.214;2023-04-15T09:51:48;5.75;;;2.05;;
62338;SDS011;48368;53.406;6.214;2023-04-15T09:54:18;6.28;;;1.50;;
62338;SDS011;48368;53.406;6.214;2023-04-15T09:56:45;4.97;;;1.67;;
62338;SDS011;48368;53.406;6.214;2023-04-15T09:59:11;3.20;;;1.20;;
62338;SDS011;48368;53.406;6.214;2023-04-15T10:01:37;2.88;;;1.25;;
62338;SDS011;48368;53.406;6.214;2023-04-15T10:04:05;5.57;;;1.67;;
62338;SDS011;48368;53.406;6.214;2023-04-15T10:06:31;5.22;;;1.38;;
62338;SDS011;48368;53.406;6.214;2023-04-15T10:08:58;6.22;;;1.52;;
62338;SDS011;48368;53.406;6.214;2023-04-15T10:11:27;5.07;;;1.40;;
62338;SDS011;48368;53.406;6.214;2023-04-15T10:13:53;4.05;;;1.25;;
62338;SDS011;48368;53.406;6.214;2023-04-15T10:16:21;3.75;;;1.30;;
62338;SDS011;48368;53.406;6.214;2023-04-15T10:18:53;7.25;;;1.70;;
62338;SDS011;48368;53.406;6.214;2023-04-15T10:21:20;6.35;;;1.83;;
62338;SDS011;48368;53.406;6.214;2023-04-15T10:23:47;3.05;;;1.13;;
62338;SDS011;48368;53.406;6.214;2023-04-15T10:26:14;2.72;;;1.40;;
62338;SDS011;48368;53.406;6.214;2023-04-15T10:28:44;4.38;;;1.80;;
62338;SDS011;48368;53.406;6.214;2023-04-15T10:31:11;5.40;;;1.55;;
62338;SDS011;48368;53.406;6.214;2023-04-15T10:33:38;6.82;;;1.90;;
62338;SDS011;48368;53.406;6.214;2023-04-15T10:36:05;7.57;;;1.40;;
62338;SDS011;48368;53.406;6.214;2023-04-15T10:41:43;3.25;;;1.20;;
62338;SDS011;48368;53.406;6.214;2023-04-15T10:43:52;3.78;;;1.40;;
62338;SDS011;48368;53.406;6.214;2023-04-15T10:46:37;6.28;;;1.45;;
62338;SDS011;48368;53.406;6.214;2023-04-15T10:51:44;4.80;;;1.60;;
62338;SDS011;48368;53.406;6.214;2023-04-15T10:57:22;7.28;;;2.05;;
62338;SDS011;48368;53.406;6.214;2023-04-15T11:05:04;5.05;;;1.42;;
62338;SDS011;48368;53.406;6.214;2023-04-15T11:07:34;4.20;;;1.30;;
62338;SDS011;48368;53.406;6.214;2023-04-15T11:12:46;5.68;;;1.20;;
62338;SDS011;48368;53.406;6.214;2023-04-15T11:17:54;4.55;;;1.10;;
62338;SDS011;48368;53.406;6.214;2023-04-15T11:20:20;5.78;;;1.52;;
62338;SDS011;48368;53.406;6.214;2023-04-15T11:22:47;5.97;;;1.05;;
62338;SDS011;48368;53.406;6.214;2023-04-15T11:25:23;6.47;;;1.50;;
62338;SDS011;48368;53.406;6.214;2023-04-15T11:27:51;7.75;;;1.23;;
62338;SDS011;48368;53.406;6.214;2023-04-15T11:30:19;4.35;;;1.10;;
62338;SDS011;48368;53.406;6.214;2023-04-15T11:32:50;4.50;;;1.10;;
62338;SDS011;48368;53.406;6.214;2023-04-15T11:35:17;5.20;;;1.30;;
62338;SDS011;48368;53.406;6.214;2023-04-15T11:37:43;5.20;;;1.35;;
62338;SDS011;48368;53.406;6.214;2023-04-15T11:40:10;10.40;;;1.90;;
62338;SDS011;48368;53.406;6.214;2023-04-15T11:42:36;6.25;;;1.30;;
62338;SDS011;48368;53.406;6.214;2023-04-15T11:45:12;5.57;;;1.25;;
62338;SDS011;48368;53.406;6.214;2023-04-15T11:47:40;11.50;;;2.15;;
62338;SDS011;48368;53.406;6.214;2023-04-15T11:50:16;9.40;;;1.67;;
62338;SDS011;48368;53.406;6.214;2023-04-15T11:55:26;10.82;;;1.25;;
62338;SDS011;48368;53.406;6.214;2023-04-15T12:00:32;6.55;;;1.20;;
62338;SDS011;48368;53.406;6.214;2023-04-15T12:03:11;10.48;;;2.38;;
62338;SDS011;48368;53.406;6.214;2023-04-15T12:08:55;9.40;;;1.40;;
62338;SDS011;48368;53.406;6.214;2023-04-15T12:13:53;4.03;;;0.98;;
62338;SDS011;48368;53.406;6.214;2023-04-15T12:16:21;6.93;;;1.10;;
62338;SDS011;48368;53.406;6.214;2023-04-15T12:18:55;10.27;;;1.85;;
62338;SDS011;48368;53.406;6.214;2023-04-15T12:21:24;6.35;;;1.02;;
62338;SDS011;48368;53.406;6.214;2023-04-15T12:23:52;3.97;;;1.05;;
62338;SDS011;48368;53.406;6.214;2023-04-15T12:26:25;9.55;;;1.10;;
62338;SDS011;48368;53.406;6.214;2023-04-15T12:28:53;2.85;;;0.93;;
62338;SDS011;48368;53.406;6.214;2023-04-15T12:31:20;7.05;;;0.95;;
62338;SDS011;48368;53.406;6.214;2023-04-15T12:33:47;5.65;;;0.98;;
62338;SDS011;48368;53.406;6.214;2023-04-15T12:36:13;7.72;;;1.10;;
62338;SDS011;48368;53.406;6.214;2023-04-15T12:38:39;7.78;;;1.30;;
62338;SDS011;48368;53.406;6.214;2023-04-15T12:41:05;10.35;;;1.13;;
62338;SDS011;48368;53.406;6.214;2023-04-15T12:43:30;6.15;;;1.73;;
62338;SDS011;48368;53.406;6.214;2023-04-15T12:45:56;5.15;;;1.05;;
62338;SDS011;48368;53.406;6.214;2023-04-15T12:48:22;9.63;;;1.25;;
62338;SDS011;48368;53.406;6.214;2023-04-15T12:50:47;3.17;;;1.15;;
62338;SDS011;48368;53.406;6.214;2023-04-15T12:53:13;9.15;;;1.60;;
62338;SDS011;48368;53.406;6.214;2023-04-15T12:55:39;8.88;;;0.80;;
62338;SDS011;48368;53.406;6.214;2023-04-15T12:58:04;24.83;;;4.07;;
62338;SDS011;48368;53.406;6.214;2023-04-15T13:00:32;5.47;;;1.40;;
62338;SDS011;48368;53.406;6.214;2023-04-15T13:02:59;8.05;;;1.38;;
62338;SDS011;48368;53.406;6.214;2023-04-15T13:05:24;11.98;;;1.90;;
62338;SDS011;48368;53.406;6.214;2023-04-15T13:07:50;7.80;;;1.40;;
62338;SDS011;48368;53.406;6.214;2023-04-15T13:10:16;9.73;;;1.70;;
62338;SDS011;48368;53.406;6.214;2023-04-15T13:12:42;7.13;;;1.58;;
62338;SDS011;48368;53.406;6.214;2023-04-15T13:15:07;5.85;;;1.40;;
62338;SDS011;48368;53.406;6.214;2023-04-15T13:17:35;12.90;;;1.80;;
62338;SDS011;48368;53.406;6.214;2023-04-15T13:20:02;5.18;;;1.33;;
62338;SDS011;48368;53.406;6.214;2023-04-15T13:22:28;9.30;;;1.20;;
62338;SDS011;48368;53.406;6.214;2023-04-15T13:24:53;7.75;;;1.40;;
62338;SDS011;48368;53.406;6.214;2023-04-15T13:27:19;14.27;;;3.75;;
62338;SDS011;48368;53.406;6.214;2023-04-15T13:29:45;6.47;;;0.98;;
62338;SDS011;48368;53.406;6.214;2023-04-15T13:32:11;8.40;;;1.42;;
62338;SDS011;48368;53.406;6.214;2023-04-15T13:34:36;6.22;;;1.20;;
62338;SDS011;48368;53.406;6.214;2023-04-15T13:37:08;4.95;;;1.55;;
62338;SDS011;48368;53.406;6.214;2023-04-15T13:39:34;8.93;;;1.40;;
62338;SDS011;48368;53.406;6.214;2023-04-15T13:41:59;5.25;;;2.03;;
62338;SDS011;48368;53.406;6.214;2023-04-15T13:44:26;12.80;;;1.58;;
62338;SDS011;48368;53.406;6.214;2023-04-15T13:49:32;5.40;;;1.23;;
62338;SDS011;48368;53.406;6.214;2023-04-15T13:51:59;9.55;;;1.50;;
62338;SDS011;48368;53.406;6.214;2023-04-15T13:54:25;5.53;;;1.30;;
62338;SDS011;48368;53.406;6.214;2023-04-15T13:56:51;5.22;;;1.30;;
62338;SDS011;48368;53.406;6.214;2023-04-15T13:59:18;7.90;;;1.58;;
62338;SDS011;48368;53.406;6.214;2023-04-15T14:01:44;6.10;;;1.02;;
62338;SDS011;48368;53.406;6.214;2023-04-15T14:04:09;11.55;;;1.30;;
62338;SDS011;48368;53.406;6.214;2023-04-15T14:06:35;7.78;;;1.23;;
62338;SDS011;48368;53.406;6.214;2023-04-15T14:09:01;8.63;;;1.55;;
62338;SDS011;48368;53.406;6.214;2023-04-15T14:11:26;10.23;;;1.40;;
62338;SDS011;48368;53.406;6.214;2023-04-15T14:13:53;10.77;;;2.00;;
62338;SDS011;48368;53.406;6.214;2023-04-15T14:16:19;13.20;;;3.92;;
62338;SDS011;48368;53.406;6.214;2023-04-15T14:18:45;10.27;;;1.90;;
62338;SDS011;48368;53.406;6.214;2023-04-15T14:21:10;12.88;;;1.83;;
62338;SDS011;48368;53.406;6.214;2023-04-15T14:23:37;9.73;;;1.80;;
62338;SDS011;48368;53.406;6.214;2023-04-15T14:26:02;11.05;;;2.80;;
62338;SDS011;48368;53.406;6.214;2023-04-15T14:28:28;6.85;;;2.00;;
62338;SDS011;48368;53.406;6.214;2023-04-15T14:30:54;14.07;;;2.00;;
62338;SDS011;48368;53.406;6.214;2023-04-15T14:33:20;8.10;;;1.35;;
62338;SDS011;48368;53.406;6.214;2023-04-15T14:35:45;8.98;;;1.98;;
62338;SDS011;48368;53.406;6.214;2023-04-15T14:38:11;7.53;;;1.60;;
62338;SDS011;48368;53.406;6.214;2023-04-15T14:40:36;10.70;;;1.92;;
62338;SDS011;48368;53.406;6.214;2023-04-15T14:43:02;10.80;;;2.17;;
62338;SDS011;48368;53.406;6.214;2023-04-15T14:45:29;6.90;;;1.35;;
62338;SDS011;48368;53.406;6.214;2023-04-15T14:47:55;13.85;;;2.00;;
62338;SDS011;48368;53.406;6.214;2023-04-15T14:50:21;9.30;;;1.67;;
62338;SDS011;48368;53.406;6.214;2023-04-15T14:52:48;13.50;;;2.33;;
62338;SDS011;48368;53.406;6.214;2023-04-15T14:55:14;11.52;;;1.90;;
62338;SDS011;48368;53.406;6.214;2023-04-15T14:57:42;10.65;;;2.03;;
62338;SDS011;48368;53.406;6.214;2023-04-15T15:00:08;10.38;;;1.95;;
62338;SDS011;48368;53.406;6.214;2023-04-15T15:02:35;13.18;;;1.38;;
62338;SDS011;48368;53.406;6.214;2023-04-15T15:05:02;13.18;;;2.70;;
62338;SDS011;48368;53.406;6.214;2023-04-15T15:07:28;11.02;;;1.73;;